Contact Us:
Email: info@sawbill.com
Phone: (218)663-7150
Fax: (218)663-7980
Mail: 4620 Sawbill Trail
Box 2129
Tofte, MN 55615


Powered by
Movable Type 3.15
 
Sawbill Weather History Archives: June 2006
Current Sawbill Weather History | « May 2006 | July 2006 »


Date

High
Temperature

Low
Temperature

Barometric
Pressure

Relative
Humidity 7AM

9 AM
Temperature

Moisture

Snow

6/30/06 84 45 29.71 87% 64 .25"
6/29/06 83 53 30.06 85% 58 0
6/28/06 80 54 30.15 74% 59 0
6/27/06 71 55 30.10 90% 55 .18"
6/26/06 83 53 30.01 85% 56 .23"
6/24/06 80 50 30.22 82% 55 0
6/25/06 83 47 30.13 79% 53 0
6/23/06 78 52 30.14 84% 56 0
6/22/06 74 48 29.92 74% 50 .07"
6/21/06 76 54 29.98 74% 55 1.53"
6/20/06 78 49 29.78 83% 52 0
6/19/06 77 50 30.00 80% 55 0
6/18/06 79 55 29.87 81% 55 .07"
6/17/06 79 62 29.71 86% 62 .24"
6/16/06 82 65 29.82 85% 67 0
6/15/06 75 51 29.86 85% 65 0
6/14/06 77 46 30.09 82% 51 0
6/13/06 72 51 30.17 83% 59 .33"
6/12/06 78 49 30.14 86% 56 0
6/11/06 77 39 30.22 79% 42 0
6/10/06 74 42 30.08 73% 45 0
6/9/06 67 40 30.23 54% 47 0
6/8/06 75 47 30.24 75% 49 0
6/7/06 83 54 30.15 62% 56 0
6/6/06 71 57 29.95 90% 58 .11"
6/5/06 70 53 29.79 86% 55 .07"
6/4/06 81 51 29.97 74% 61 0
6/3/06 79 41 30.07 74% 51 0
6/2/06 79 47 30.14 84% 51 0
6/1/06 80 51 30.15 85% 55 .15"
 


Home I Trip Planning I Rentals and Outfitting I Reservations I Campgrounds I Sawbill Store I Sawbill News I Contact

© 1997 - 2017, Sawbill Canoe Outfitters, Inc. I Privacy Policy